createdAt,value
2023-03-20T00:02:18.899Z,8.00
2023-03-20T00:04:45.760Z,8.30
2023-03-20T00:07:12.436Z,8.35
2023-03-20T00:09:39.427Z,8.45
2023-03-20T00:12:06.596Z,8.16
2023-03-20T00:14:34.453Z,8.16
2023-03-20T00:17:01.625Z,7.97
2023-03-20T00:19:29.393Z,8.09
2023-03-20T00:21:56.592Z,7.93
2023-03-20T00:24:23.678Z,7.89
2023-03-20T00:26:52.400Z,7.74
2023-03-20T00:29:25.955Z,7.70
2023-03-20T00:31:53.200Z,7.53
2023-03-20T00:34:22.317Z,7.51
2023-03-20T00:36:49.258Z,7.61
2023-03-20T00:39:16.025Z,7.82
2023-03-20T00:41:48.027Z,7.94
2023-03-20T00:44:28.725Z,7.98
2023-03-20T00:47:00.946Z,7.96
2023-03-20T00:49:34.064Z,8.17
2023-03-20T00:52:02.623Z,8.02
2023-03-20T00:54:29.786Z,7.68
2023-03-20T00:56:59.364Z,7.58
2023-03-20T00:59:42.289Z,7.38
2023-03-20T01:02:11.298Z,7.43
2023-03-20T01:04:40.568Z,7.48
2023-03-20T01:07:12.213Z,7.51
2023-03-20T01:09:38.857Z,7.47
2023-03-20T01:12:06.441Z,7.47
2023-03-20T01:14:33.099Z,7.40
2023-03-20T01:16:59.812Z,7.48
2023-03-20T01:19:26.490Z,7.65
2023-03-20T01:21:53.277Z,7.71
2023-03-20T01:24:19.923Z,7.75
2023-03-20T01:26:46.605Z,7.86
2023-03-20T01:29:27.152Z,7.53
2023-03-20T01:31:54.347Z,7.30
2023-03-20T01:34:21.098Z,7.48
2023-03-20T01:36:54.124Z,7.59
2023-03-20T01:39:22.318Z,7.57
2023-03-20T01:41:51.113Z,7.54
2023-03-20T01:44:36.506Z,7.61
2023-03-20T01:47:15.509Z,7.75
2023-03-20T01:50:00.374Z,7.71
2023-03-20T01:52:27.022Z,7.87
2023-03-20T01:54:53.661Z,7.52
2023-03-20T01:57:25.734Z,7.35
2023-03-20T02:00:00.481Z,7.32
2023-03-20T02:02:30.726Z,7.26
2023-03-20T02:05:09.207Z,7.11
2023-03-20T02:07:38.253Z,7.40
2023-03-20T02:10:09.040Z,7.30
2023-03-20T02:12:36.732Z,7.26
2023-03-20T02:15:05.047Z,7.41
2023-03-20T02:17:32.348Z,7.08
2023-03-20T02:20:12.334Z,7.12
2023-03-20T02:23:13.223Z,7.44
2023-03-20T02:26:06.892Z,7.63
2023-03-20T02:29:08.790Z,7.80
2023-03-20T02:31:55.953Z,7.65
2023-03-20T02:34:37.926Z,7.35
2023-03-20T02:37:50.727Z,7.52
2023-03-20T02:40:48.219Z,7.36
2023-03-20T02:43:31.090Z,7.29
2023-03-20T02:46:10.302Z,7.14
2023-03-20T02:48:36.992Z,7.61
2023-03-20T02:51:18.594Z,7.56
2023-03-20T02:54:22.683Z,7.62
2023-03-20T02:56:55.356Z,7.31
2023-03-20T02:59:43.479Z,7.44
2023-03-20T03:02:18.865Z,7.01
2023-03-20T03:04:52.719Z,6.97
2023-03-20T03:07:27.810Z,6.95
2023-03-20T03:10:07.730Z,6.87
2023-03-20T03:12:40.385Z,6.61
2023-03-20T03:15:35.628Z,6.82
2023-03-20T03:18:05.468Z,6.89
2023-03-20T03:20:38.789Z,6.74
2023-03-20T03:23:07.306Z,6.75
2023-03-20T03:25:38.470Z,6.92
2023-03-20T03:28:30.583Z,6.88
2023-03-20T03:30:59.115Z,6.95
2023-03-20T03:33:30.502Z,6.91
2023-03-20T03:36:23.153Z,6.70
2023-03-20T03:39:01.155Z,6.68
2023-03-20T03:42:10.157Z,6.58
2023-03-20T03:45:02.680Z,6.45
2023-03-20T03:47:45.849Z,6.47
2023-03-20T03:50:26.287Z,6.62
2023-03-20T03:52:56.285Z,6.59
2023-03-20T03:55:26.811Z,6.65
2023-03-20T03:58:00.719Z,6.42
2023-03-20T04:00:28.762Z,6.37
2023-03-20T04:02:57.637Z,6.39
2023-03-20T04:05:28.740Z,6.38
2023-03-20T04:07:57.426Z,6.29
2023-03-20T04:10:24.738Z,6.24
2023-03-20T04:12:51.792Z,6.16
2023-03-20T04:15:19.028Z,6.34
2023-03-20T04:17:46.057Z,6.54
2023-03-20T04:20:13.690Z,6.39
2023-03-20T04:22:40.969Z,6.42
2023-03-20T04:25:10.008Z,6.25
2023-03-20T04:27:36.627Z,6.44
2023-03-20T04:30:03.562Z,6.32
2023-03-20T04:32:30.212Z,6.29
2023-03-20T04:34:56.856Z,6.05
2023-03-20T04:37:23.533Z,6.02
2023-03-20T04:39:50.163Z,6.02
2023-03-20T04:42:16.822Z,5.99
2023-03-20T04:44:43.442Z,5.69
2023-03-20T04:47:10.472Z,5.65
2023-03-20T04:49:37.209Z,5.64
2023-03-20T04:52:04.121Z,5.62
2023-03-20T04:54:30.764Z,5.60
2023-03-20T04:56:57.404Z,5.88
2023-03-20T04:59:24.279Z,6.00
2023-03-20T05:01:50.972Z,5.65
2023-03-20T05:04:17.894Z,5.49
2023-03-20T05:06:44.564Z,5.70
2023-03-20T05:09:11.204Z,5.69
2023-03-20T05:11:37.878Z,5.67
2023-03-20T05:14:04.503Z,5.61
2023-03-20T05:16:31.214Z,5.60
2023-03-20T05:18:57.889Z,5.56
2023-03-20T05:21:24.606Z,5.48
2023-03-20T05:23:51.416Z,5.58
2023-03-20T05:26:18.050Z,5.59
2023-03-20T05:28:46.995Z,5.58
2023-03-20T05:31:13.921Z,5.62
2023-03-20T05:33:42.668Z,5.62
2023-03-20T05:36:09.794Z,5.51
2023-03-20T05:38:36.672Z,5.33
2023-03-20T05:41:03.287Z,5.31
2023-03-20T05:43:29.931Z,5.23
2023-03-20T05:45:56.879Z,5.38
2023-03-20T05:48:24.242Z,5.37
2023-03-20T05:50:50.917Z,5.63
2023-03-20T05:53:17.560Z,5.64
2023-03-20T05:55:44.912Z,5.56
2023-03-20T05:58:11.930Z,5.46
2023-03-20T06:00:39.274Z,5.56
2023-03-20T06:03:05.938Z,5.47
2023-03-20T06:05:33.728Z,5.61
2023-03-20T06:08:00.633Z,5.47
2023-03-20T06:10:27.674Z,5.48
2023-03-20T06:12:54.386Z,5.57
2023-03-20T06:15:21.089Z,5.74
2023-03-20T06:17:47.727Z,5.91
2023-03-20T06:20:14.562Z,5.89
2023-03-20T06:22:41.173Z,5.73
2023-03-20T06:25:08.205Z,5.68
2023-03-20T06:27:34.822Z,5.73
2023-03-20T06:30:01.474Z,5.88
2023-03-20T06:32:28.085Z,5.83
2023-03-20T06:34:54.701Z,6.13
2023-03-20T06:37:21.363Z,6.12
2023-03-20T06:39:48.216Z,6.14
2023-03-20T06:42:16.262Z,6.42
2023-03-20T06:44:43.462Z,6.50
2023-03-20T06:47:10.093Z,6.62
2023-03-20T06:49:36.703Z,6.67
2023-03-20T06:52:04.031Z,6.84
2023-03-20T06:54:30.665Z,7.02
2023-03-20T06:56:57.283Z,7.10
2023-03-20T06:59:23.905Z,7.27
2023-03-20T07:01:50.658Z,7.32
2023-03-20T07:04:17.391Z,7.61
2023-03-20T07:06:44.137Z,7.59
2023-03-20T07:09:10.785Z,7.62
2023-03-20T07:11:37.575Z,7.63
2023-03-20T07:14:04.180Z,7.69
2023-03-20T07:16:30.823Z,7.87
2023-03-20T07:18:57.495Z,7.90
2023-03-20T07:21:24.204Z,7.93
2023-03-20T07:23:50.829Z,8.07
2023-03-20T07:26:17.482Z,8.19
2023-03-20T07:28:44.101Z,8.28
2023-03-20T07:31:24.286Z,8.45
2023-03-20T07:33:51.003Z,8.49
2023-03-20T07:36:17.675Z,8.56
2023-03-20T07:38:44.692Z,8.63
2023-03-20T07:41:11.439Z,8.67
2023-03-20T07:43:38.075Z,8.62
2023-03-20T07:46:07.035Z,8.89
2023-03-20T07:48:34.343Z,8.92
2023-03-20T07:51:01.035Z,9.06
2023-03-20T07:53:27.740Z,9.09
2023-03-20T07:55:54.418Z,9.04
2023-03-20T07:58:21.034Z,9.15
2023-03-20T08:00:47.658Z,9.38
2023-03-20T08:03:14.538Z,9.43
2023-03-20T08:05:41.244Z,9.47
2023-03-20T08:08:07.836Z,9.47
2023-03-20T08:10:34.739Z,9.66
2023-03-20T08:13:01.424Z,9.70
2023-03-20T08:15:28.242Z,9.95
2023-03-20T08:17:54.854Z,9.89
2023-03-20T08:20:21.572Z,9.82
2023-03-20T08:22:48.187Z,9.99
2023-03-20T08:25:14.791Z,10.30
2023-03-20T08:27:41.981Z,10.39
2023-03-20T08:30:09.579Z,10.41
2023-03-20T08:32:36.326Z,10.60
2023-03-20T08:35:03.642Z,10.69
2023-03-20T08:37:30.331Z,11.04
2023-03-20T08:39:56.962Z,11.15
2023-03-20T08:42:23.592Z,11.30
2023-03-20T08:44:50.216Z,11.43
2023-03-20T08:47:16.883Z,11.68
2023-03-20T08:49:43.574Z,11.52
2023-03-20T08:52:10.247Z,11.74
2023-03-20T08:54:37.059Z,11.81
2023-03-20T08:57:03.935Z,12.15
2023-03-20T08:59:30.633Z,12.24
2023-03-20T09:01:57.815Z,12.24
2023-03-20T09:04:24.630Z,12.45
2023-03-20T09:06:51.480Z,12.15
2023-03-20T09:09:18.180Z,12.18
2023-03-20T09:11:44.773Z,12.33
2023-03-20T09:14:11.999Z,12.35
2023-03-20T09:16:38.799Z,12.42
2023-03-20T09:19:06.327Z,12.90
2023-03-20T09:21:32.935Z,12.93
2023-03-20T09:23:59.582Z,13.00
2023-03-20T09:26:26.238Z,12.72
2023-03-20T09:28:52.898Z,13.00
2023-03-20T09:31:19.587Z,13.06
2023-03-20T09:33:46.312Z,12.95
2023-03-20T09:36:13.018Z,13.06
2023-03-20T09:38:39.689Z,13.14
2023-03-20T09:41:06.507Z,13.14
2023-03-20T09:43:44.203Z,13.31
2023-03-20T09:46:16.647Z,13.32
2023-03-20T09:49:04.196Z,13.45
2023-03-20T09:51:30.732Z,13.32
2023-03-20T09:54:19.332Z,13.37
2023-03-20T09:56:46.077Z,13.62
2023-03-20T09:59:16.100Z,13.57
2023-03-20T10:01:52.231Z,13.57
2023-03-20T10:04:19.574Z,13.31
2023-03-20T10:06:47.094Z,13.66
2023-03-20T10:09:22.420Z,13.69
2023-03-20T10:12:01.338Z,13.52
2023-03-20T10:15:03.749Z,13.70
2023-03-20T10:17:48.717Z,13.78
2023-03-20T10:20:34.717Z,13.64
2023-03-20T10:23:26.720Z,13.76
2023-03-20T10:26:07.995Z,13.69
2023-03-20T10:28:43.569Z,14.04
2023-03-20T10:31:22.031Z,14.17
2023-03-20T10:34:03.296Z,14.24
2023-03-20T10:36:29.833Z,14.42
2023-03-20T10:39:24.639Z,14.51
2023-03-20T10:41:57.911Z,14.30
2023-03-20T10:44:49.276Z,14.15
2023-03-20T10:47:20.904Z,14.22
2023-03-20T10:50:05.891Z,14.42
2023-03-20T10:52:37.033Z,14.46
2023-03-20T10:55:08.691Z,14.61
2023-03-20T10:57:39.834Z,14.60
2023-03-20T11:00:07.730Z,14.81
2023-03-20T11:02:34.359Z,14.67
2023-03-20T11:05:07.596Z,14.39
2023-03-20T11:07:35.779Z,14.68
2023-03-20T11:10:05.373Z,14.85
2023-03-20T11:12:33.994Z,14.57
2023-03-20T11:15:06.135Z,14.54
2023-03-20T11:17:32.788Z,14.77
2023-03-20T11:20:06.097Z,14.76
2023-03-20T11:22:32.798Z,14.78
2023-03-20T11:25:01.676Z,14.89
2023-03-20T11:27:30.789Z,15.09
2023-03-20T11:29:58.906Z,14.66
2023-03-20T11:32:40.959Z,14.82
2023-03-20T11:35:25.968Z,14.93
2023-03-20T11:37:55.537Z,14.97
2023-03-20T11:40:31.811Z,15.09
2023-03-20T11:43:01.139Z,15.09
2023-03-20T11:45:41.159Z,15.24
2023-03-20T11:48:20.493Z,15.23
2023-03-20T11:51:07.432Z,15.36
2023-03-20T11:53:49.318Z,15.28
2023-03-20T11:56:25.659Z,15.15
2023-03-20T11:58:58.024Z,15.11
2023-03-20T12:01:26.457Z,15.05
2023-03-20T12:03:59.717Z,15.20
2023-03-20T12:06:28.331Z,15.39
2023-03-20T12:09:03.904Z,15.49
2023-03-20T12:11:52.583Z,15.37
2023-03-20T12:14:51.456Z,15.62
2023-03-20T12:17:33.255Z,15.04
2023-03-20T12:20:07.431Z,15.31
2023-03-20T12:22:43.161Z,15.06
2023-03-20T12:25:25.459Z,14.82
2023-03-20T12:28:21.071Z,15.07
2023-03-20T12:31:19.811Z,15.13
2023-03-20T12:34:17.593Z,14.95
2023-03-20T12:36:47.886Z,14.93
2023-03-20T12:39:17.630Z,14.65
2023-03-20T12:41:53.317Z,14.92
2023-03-20T12:44:30.116Z,15.13
2023-03-20T12:47:13.811Z,15.47
2023-03-20T12:49:46.134Z,15.08
2023-03-20T12:52:43.689Z,15.36
2023-03-20T12:55:19.537Z,15.44
2023-03-20T12:58:13.433Z,15.39
2023-03-20T13:01:04.552Z,15.54
2023-03-20T13:03:49.404Z,15.23
2023-03-20T13:06:45.308Z,15.50
2023-03-20T13:09:26.892Z,15.64
2023-03-20T13:11:56.330Z,15.51
2023-03-20T13:14:50.245Z,15.87
2023-03-20T13:17:19.868Z,15.91
2023-03-20T13:20:26.919Z,15.53
2023-03-20T13:23:00.634Z,15.34
2023-03-20T13:25:42.403Z,15.58
2023-03-20T13:28:29.291Z,15.42
2023-03-20T13:31:09.781Z,15.52
2023-03-20T13:33:48.600Z,15.44
2023-03-20T13:36:27.548Z,15.40
2023-03-20T13:39:14.755Z,15.50
2023-03-20T13:41:43.233Z,15.51
2023-03-20T13:44:12.056Z,15.71
2023-03-20T13:46:47.826Z,15.78
2023-03-20T13:49:21.195Z,15.45
2023-03-20T13:51:59.469Z,15.69
2023-03-20T13:54:41.216Z,15.58
2023-03-20T13:57:13.376Z,15.95
2023-03-20T13:59:54.184Z,15.50
2023-03-20T14:02:40.386Z,15.79
2023-03-20T14:05:22.072Z,15.54
2023-03-20T14:07:50.807Z,15.17
2023-03-20T14:10:23.539Z,15.23
2023-03-20T14:12:57.599Z,15.23
2023-03-20T14:15:32.805Z,15.31
2023-03-20T14:18:07.488Z,15.46
2023-03-20T14:20:35.053Z,15.26
2023-03-20T14:23:02.783Z,15.17
2023-03-20T14:25:36.173Z,15.34
2023-03-20T14:28:12.936Z,15.19
2023-03-20T14:30:45.407Z,15.21
2023-03-20T14:33:15.243Z,15.21
2023-03-20T14:35:52.235Z,15.38
2023-03-20T14:38:37.976Z,15.14
2023-03-20T14:41:18.603Z,15.17
2023-03-20T14:43:51.373Z,15.21
2023-03-20T14:46:28.639Z,15.24
2023-03-20T14:48:55.979Z,15.22
2023-03-20T14:51:41.953Z,15.62
2023-03-20T14:54:28.328Z,15.17
2023-03-20T14:56:57.288Z,15.40
2023-03-20T14:59:25.012Z,15.22
2023-03-20T15:01:59.161Z,15.50
2023-03-20T15:04:34.420Z,15.46
2023-03-20T15:07:10.664Z,15.38
2023-03-20T15:09:42.184Z,15.24
2023-03-20T15:12:10.533Z,15.54
2023-03-20T15:15:07.446Z,15.60
2023-03-20T15:17:45.106Z,15.56
2023-03-20T15:20:16.421Z,15.20
2023-03-20T15:22:58.303Z,15.41
2023-03-20T15:25:39.430Z,15.47
2023-03-20T15:28:08.034Z,15.26
2023-03-20T15:30:38.831Z,15.16
2023-03-20T15:33:07.433Z,14.98
2023-03-20T15:35:34.268Z,14.89
2023-03-20T15:38:07.012Z,15.03
2023-03-20T15:40:50.110Z,15.10
2023-03-20T15:43:26.014Z,15.37
2023-03-20T15:45:55.637Z,15.53
2023-03-20T15:48:30.276Z,15.34
2023-03-20T15:51:00.218Z,15.18
2023-03-20T15:53:37.041Z,15.34
2023-03-20T15:56:17.699Z,15.16
2023-03-20T15:58:48.567Z,15.56
2023-03-20T16:01:19.067Z,15.72
2023-03-20T16:03:46.105Z,15.70
2023-03-20T16:06:13.714Z,15.63
2023-03-20T16:08:40.332Z,15.87
2023-03-20T16:11:15.510Z,15.78
2023-03-20T16:13:48.228Z,16.01
2023-03-20T16:16:18.056Z,15.56
2023-03-20T16:18:46.202Z,15.17
2023-03-20T16:21:20.627Z,15.53
2023-03-20T16:23:52.349Z,15.24
2023-03-20T16:26:22.193Z,15.05
2023-03-20T16:28:55.661Z,14.82
2023-03-20T16:31:27.296Z,14.69
2023-03-20T16:33:59.136Z,14.87
2023-03-20T16:36:30.254Z,14.76
2023-03-20T16:38:57.903Z,15.18
2023-03-20T16:41:27.432Z,14.93
2023-03-20T16:43:55.786Z,15.10
2023-03-20T16:46:25.235Z,15.08
2023-03-20T16:48:56.744Z,14.56
2023-03-20T16:51:29.593Z,14.47
2023-03-20T16:54:01.094Z,14.43
2023-03-20T16:56:36.775Z,14.15
2023-03-20T16:59:11.780Z,14.23
2023-03-20T17:01:44.022Z,14.05
2023-03-20T17:04:43.178Z,14.13
2023-03-20T17:07:09.742Z,13.88
2023-03-20T17:09:36.485Z,13.82
2023-03-20T17:12:15.605Z,13.83
2023-03-20T17:14:42.246Z,13.64
2023-03-20T17:17:18.906Z,13.67
2023-03-20T17:19:46.252Z,13.71
2023-03-20T17:22:21.874Z,13.98
2023-03-20T17:24:49.011Z,13.94
2023-03-20T17:27:17.328Z,14.13
2023-03-20T17:29:45.346Z,13.84
2023-03-20T17:32:15.822Z,13.55
2023-03-20T17:34:42.899Z,13.44
2023-03-20T17:37:14.704Z,13.29
2023-03-20T17:39:41.848Z,13.52
2023-03-20T17:42:19.489Z,13.25
2023-03-20T17:44:47.362Z,13.24
2023-03-20T17:47:19.957Z,13.22
2023-03-20T17:49:46.786Z,13.34
2023-03-20T17:52:18.392Z,13.28
2023-03-20T17:54:45.664Z,12.99
2023-03-20T17:57:22.614Z,13.01
2023-03-20T17:59:49.872Z,13.18
2023-03-20T18:02:18.163Z,12.91
2023-03-20T18:04:48.416Z,12.97
2023-03-20T18:07:17.211Z,12.87
2023-03-20T18:09:45.227Z,13.66
2023-03-20T18:12:15.689Z,13.35
2023-03-20T18:14:43.073Z,12.92
2023-03-20T18:17:12.695Z,12.85
2023-03-20T18:19:40.134Z,12.96
2023-03-20T18:22:06.900Z,13.30
2023-03-20T18:24:33.827Z,13.40
2023-03-20T18:27:00.519Z,13.52
2023-03-20T18:29:27.365Z,13.31
2023-03-20T18:31:54.032Z,13.30
2023-03-20T18:34:20.667Z,12.97
2023-03-20T18:36:47.313Z,13.03
2023-03-20T18:39:19.035Z,12.89
2023-03-20T18:41:46.440Z,12.77
2023-03-20T18:44:13.944Z,12.81
2023-03-20T18:46:40.970Z,12.76
2023-03-20T18:49:13.659Z,12.69
2023-03-20T18:51:40.405Z,12.64
2023-03-20T18:54:07.324Z,12.45
2023-03-20T18:56:33.927Z,12.40
2023-03-20T18:59:00.570Z,12.48
2023-03-20T19:01:27.384Z,12.54
2023-03-20T19:03:54.133Z,12.45
2023-03-20T19:06:24.352Z,12.46
2023-03-20T19:08:51.714Z,12.45
2023-03-20T19:11:21.406Z,12.43
2023-03-20T19:13:50.698Z,12.41
2023-03-20T19:16:26.402Z,12.41
2023-03-20T19:18:55.192Z,12.32
2023-03-20T19:21:22.057Z,12.40
2023-03-20T19:23:48.649Z,12.22
2023-03-20T19:26:20.694Z,12.03
2023-03-20T19:28:47.657Z,11.96
2023-03-20T19:31:15.185Z,11.82
2023-03-20T19:33:41.969Z,11.49
2023-03-20T19:36:29.992Z,11.47
2023-03-20T19:38:58.400Z,11.25
2023-03-20T19:41:26.218Z,11.22
2023-03-20T19:43:55.606Z,11.31
2023-03-20T19:46:41.018Z,11.28
2023-03-20T19:49:30.640Z,11.41
2023-03-20T19:51:57.670Z,11.24
2023-03-20T19:54:24.309Z,11.26
2023-03-20T19:56:50.893Z,11.24
2023-03-20T19:59:17.751Z,11.04
2023-03-20T20:01:44.533Z,10.71
2023-03-20T20:04:11.186Z,10.44
2023-03-20T20:06:39.727Z,10.47
2023-03-20T20:09:07.027Z,10.56
2023-03-20T20:11:33.657Z,10.37
2023-03-20T20:14:09.465Z,10.25
2023-03-20T20:16:38.550Z,10.41
2023-03-20T20:19:05.402Z,10.37
2023-03-20T20:24:21.660Z,10.31
2023-03-20T20:26:54.931Z,10.22
2023-03-20T20:29:26.921Z,10.48
2023-03-20T20:31:53.820Z,10.44
2023-03-20T20:39:54.429Z,10.65
2023-03-20T20:42:21.201Z,10.59
2023-03-20T20:44:47.904Z,10.76
2023-03-20T20:47:15.667Z,10.64
2023-03-20T20:49:42.921Z,10.58
2023-03-20T20:52:09.881Z,10.59
2023-03-20T20:54:36.520Z,10.55
2023-03-20T20:57:03.692Z,10.61
2023-03-20T20:59:30.577Z,10.58
2023-03-20T21:01:57.296Z,10.50
2023-03-20T21:04:23.981Z,10.38
2023-03-20T21:07:08.526Z,10.31
2023-03-20T21:09:40.275Z,10.31
2023-03-20T21:12:08.464Z,10.33
2023-03-20T21:14:35.331Z,10.20
2023-03-20T21:17:02.886Z,10.29
2023-03-20T21:19:32.891Z,10.06
2023-03-20T21:21:59.502Z,9.97
2023-03-20T21:24:34.833Z,9.98
2023-03-20T21:27:07.224Z,9.96
2023-03-20T21:29:34.393Z,9.88
2023-03-20T21:32:01.252Z,9.99
2023-03-20T21:34:28.202Z,9.94
2023-03-20T21:36:54.839Z,9.79
2023-03-20T21:39:21.768Z,9.80
2023-03-20T21:41:48.537Z,9.96
2023-03-20T21:44:18.115Z,9.88
2023-03-20T21:50:41.324Z,9.76
2023-03-20T22:01:39.611Z,9.75
2023-03-20T22:04:06.297Z,9.84
2023-03-20T22:15:23.225Z,9.37
2023-03-20T22:26:58.736Z,9.48
2023-03-20T22:35:15.646Z,9.61
2023-03-20T22:43:01.137Z,9.16
2023-03-20T22:45:38.273Z,8.88
2023-03-20T22:48:12.351Z,9.09
2023-03-20T22:50:40.081Z,9.14
2023-03-20T22:53:07.234Z,9.05
2023-03-20T22:55:33.949Z,9.02
2023-03-20T22:58:07.212Z,8.71
2023-03-20T23:00:35.750Z,8.75
2023-03-20T23:03:17.107Z,8.80
2023-03-20T23:05:44.302Z,8.89
2023-03-20T23:08:11.965Z,9.00
2023-03-20T23:10:42.979Z,8.90
2023-03-20T23:13:09.848Z,8.99
2023-03-20T23:15:36.463Z,9.09
2023-03-20T23:18:03.193Z,9.40
2023-03-20T23:20:29.910Z,9.30
2023-03-20T23:22:56.728Z,9.22
2023-03-20T23:25:37.867Z,9.27
2023-03-20T23:28:07.355Z,9.46
2023-03-20T23:30:44.296Z,9.26
2023-03-20T23:33:15.097Z,9.03
2023-03-20T23:35:41.779Z,8.95
2023-03-20T23:38:08.469Z,8.96
2023-03-20T23:40:35.269Z,9.15
2023-03-20T23:43:02.043Z,9.03
2023-03-20T23:45:28.727Z,9.15
2023-03-20T23:47:55.401Z,9.17
2023-03-20T23:50:39.790Z,9.03
2023-03-20T23:53:19.415Z,8.95
2023-03-20T23:55:49.143Z,8.86
2023-03-20T23:58:16.065Z,8.82
